sensor_id;sensor_type;location;lat;lon;timestamp;temperature;humidity
70676;DHT22;59069;52.242;20.900;2023-04-25T00:01:37;12.72;72.16
70676;DHT22;59069;52.242;20.900;2023-04-25T00:04:03;12.71;72.27
70676;DHT22;59069;52.242;20.900;2023-04-25T00:06:31;12.69;72.42
70676;DHT22;59069;52.242;20.900;2023-04-25T00:08:57;12.68;72.55
70676;DHT22;59069;52.242;20.900;2023-04-25T00:11:23;12.68;72.72
70676;DHT22;59069;52.242;20.900;2023-04-25T00:13:49;12.68;73.03
70676;DHT22;59069;52.242;20.900;2023-04-25T00:16:18;12.66;73.31
70676;DHT22;59069;52.242;20.900;2023-04-25T00:18:43;12.66;73.51
70676;DHT22;59069;52.242;20.900;2023-04-25T00:21:11;12.65;73.68
70676;DHT22;59069;52.242;20.900;2023-04-25T00:23:37;12.66;73.84
70676;DHT22;59069;52.242;20.900;2023-04-25T00:26:04;12.65;73.96
70676;DHT22;59069;52.242;20.900;2023-04-25T00:28:29;12.65;74.11
70676;DHT22;59069;52.242;20.900;2023-04-25T00:30:55;12.66;74.25
70676;DHT22;59069;52.242;20.900;2023-04-25T00:33:20;12.65;74.46
70676;DHT22;59069;52.242;20.900;2023-04-25T00:35:46;12.68;74.68
70676;DHT22;59069;52.242;20.900;2023-04-25T00:38:11;12.65;74.79
70676;DHT22;59069;52.242;20.900;2023-04-25T00:40:37;12.65;74.92
70676;DHT22;59069;52.242;20.900;2023-04-25T00:43:02;12.61;75.03
70676;DHT22;59069;52.242;20.900;2023-04-25T00:45:29;12.61;75.21
70676;DHT22;59069;52.242;20.900;2023-04-25T00:47:55;12.58;75.42
70676;DHT22;59069;52.242;20.900;2023-04-25T00:50:20;12.58;75.68
70676;DHT22;59069;52.242;20.900;2023-04-25T00:52:46;12.56;75.87
70676;DHT22;59069;52.242;20.900;2023-04-25T00:55:12;12.55;76.13
70676;DHT22;59069;52.242;20.900;2023-04-25T00:57:38;12.55;76.29
70676;DHT22;59069;52.242;20.900;2023-04-25T01:00:05;12.56;76.38
70676;DHT22;59069;52.242;20.900;2023-04-25T01:02:32;12.56;76.58
70676;DHT22;59069;52.242;20.900;2023-04-25T01:04:58;12.54;76.85
70676;DHT22;59069;52.242;20.900;2023-04-25T01:07:24;12.51;77.08
70676;DHT22;59069;52.242;20.900;2023-04-25T01:09:51;12.48;77.32
70676;DHT22;59069;52.242;20.900;2023-04-25T01:12:17;12.45;77.63
70676;DHT22;59069;52.242;20.900;2023-04-25T01:14:43;12.44;77.90
70676;DHT22;59069;52.242;20.900;2023-04-25T01:17:09;12.37;78.18
70676;DHT22;59069;52.242;20.900;2023-04-25T01:19:35;12.37;78.43
70676;DHT22;59069;52.242;20.900;2023-04-25T01:22:01;12.32;78.68
70676;DHT22;59069;52.242;20.900;2023-04-25T01:24:26;12.31;78.92
70676;DHT22;59069;52.242;20.900;2023-04-25T01:26:53;12.28;79.13
70676;DHT22;59069;52.242;20.900;2023-04-25T01:29:23;12.25;79.34
70676;DHT22;59069;52.242;20.900;2023-04-25T01:31:51;12.18;79.60
70676;DHT22;59069;52.242;20.900;2023-04-25T01:34:17;12.20;79.82
70676;DHT22;59069;52.242;20.900;2023-04-25T01:36:42;12.16;80.08
70676;DHT22;59069;52.242;20.900;2023-04-25T01:39:08;12.10;80.32
70676;DHT22;59069;52.242;20.900;2023-04-25T01:41:34;12.11;80.55
70676;DHT22;59069;52.242;20.900;2023-04-25T01:44:00;12.10;80.67
70676;DHT22;59069;52.242;20.900;2023-04-25T01:46:26;12.10;80.64
70676;DHT22;59069;52.242;20.900;2023-04-25T01:48:52;12.07;80.63
70676;DHT22;59069;52.242;20.900;2023-04-25T01:51:17;12.04;80.77
70676;DHT22;59069;52.242;20.900;2023-04-25T01:53:43;12.01;80.98
70676;DHT22;59069;52.242;20.900;2023-04-25T01:56:08;12.00;81.18
70676;DHT22;59069;52.242;20.900;2023-04-25T01:58:35;11.95;81.40
70676;DHT22;59069;52.242;20.900;2023-04-25T02:01:00;11.91;81.65
70676;DHT22;59069;52.242;20.900;2023-04-25T02:03:26;11.86;81.87
70676;DHT22;59069;52.242;20.900;2023-04-25T02:05:51;11.87;82.04
70676;DHT22;59069;52.242;20.900;2023-04-25T02:08:17;11.84;82.23
70676;DHT22;59069;52.242;20.900;2023-04-25T02:10:43;11.79;82.40
70676;DHT22;59069;52.242;20.900;2023-04-25T02:13:09;11.77;82.58
70676;DHT22;59069;52.242;20.900;2023-04-25T02:15:34;11.76;82.72
70676;DHT22;59069;52.242;20.900;2023-04-25T02:18:00;11.73;82.85
70676;DHT22;59069;52.242;20.900;2023-04-25T02:20:26;11.69;82.95
70676;DHT22;59069;52.242;20.900;2023-04-25T02:22:52;11.66;83.04
70676;DHT22;59069;52.242;20.900;2023-04-25T02:25:18;11.65;83.08
70676;DHT22;59069;52.242;20.900;2023-04-25T02:27:45;11.65;83.24
70676;DHT22;59069;52.242;20.900;2023-04-25T02:30:11;11.63;83.30
70676;DHT22;59069;52.242;20.900;2023-04-25T02:32:38;11.62;83.42
70676;DHT22;59069;52.242;20.900;2023-04-25T02:35:03;11.59;83.58
70676;DHT22;59069;52.242;20.900;2023-04-25T02:37:33;11.58;83.67
70676;DHT22;59069;52.242;20.900;2023-04-25T02:39:59;11.58;83.80
70676;DHT22;59069;52.242;20.900;2023-04-25T02:42:25;11.55;83.89
70676;DHT22;59069;52.242;20.900;2023-04-25T02:44:51;11.52;84.00
70676;DHT22;59069;52.242;20.900;2023-04-25T02:47:16;11.50;84.07
70676;DHT22;59069;52.242;20.900;2023-04-25T02:49:42;11.52;84.10
70676;DHT22;59069;52.242;20.900;2023-04-25T02:52:07;11.50;84.12
70676;DHT22;59069;52.242;20.900;2023-04-25T02:54:34;11.47;84.14
70676;DHT22;59069;52.242;20.900;2023-04-25T02:56:59;11.44;84.26
70676;DHT22;59069;52.242;20.900;2023-04-25T02:59:26;11.43;84.37
70676;DHT22;59069;52.242;20.900;2023-04-25T03:01:51;11.43;84.45
70676;DHT22;59069;52.242;20.900;2023-04-25T03:04:17;11.43;84.53
70676;DHT22;59069;52.242;20.900;2023-04-25T03:06:44;11.43;84.58
70676;DHT22;59069;52.242;20.900;2023-04-25T03:09:09;11.43;84.57
70676;DHT22;59069;52.242;20.900;2023-04-25T03:11:36;11.46;84.59
70676;DHT22;59069;52.242;20.900;2023-04-25T03:14:02;11.47;84.52
70676;DHT22;59069;52.242;20.900;2023-04-25T03:16:27;11.47;84.56
70676;DHT22;59069;52.242;20.900;2023-04-25T03:18:53;11.49;84.55
70676;DHT22;59069;52.242;20.900;2023-04-25T03:21:18;11.44;84.56
70676;DHT22;59069;52.242;20.900;2023-04-25T03:23:43;11.44;84.69
70676;DHT22;59069;52.242;20.900;2023-04-25T03:26:09;11.46;84.74
70676;DHT22;59069;52.242;20.900;2023-04-25T03:28:35;11.44;84.83
70676;DHT22;59069;52.242;20.900;2023-04-25T03:31:00;11.44;84.96
70676;DHT22;59069;52.242;20.900;2023-04-25T03:33:26;11.47;85.02
70676;DHT22;59069;52.242;20.900;2023-04-25T03:35:51;11.49;84.98
70676;DHT22;59069;52.242;20.900;2023-04-25T03:38:17;11.50;84.91
70676;DHT22;59069;52.242;20.900;2023-04-25T03:40:42;11.50;84.92
70676;DHT22;59069;52.242;20.900;2023-04-25T03:43:08;11.50;84.92
70676;DHT22;59069;52.242;20.900;2023-04-25T03:45:33;11.52;84.95
70676;DHT22;59069;52.242;20.900;2023-04-25T03:47:59;11.55;84.97
70676;DHT22;59069;52.242;20.900;2023-04-25T03:50:24;11.53;84.97
70676;DHT22;59069;52.242;20.900;2023-04-25T03:52:50;11.53;85.03
70676;DHT22;59069;52.242;20.900;2023-04-25T03:55:16;11.56;85.06
70676;DHT22;59069;52.242;20.900;2023-04-25T03:57:41;11.55;85.10
70676;DHT22;59069;52.242;20.900;2023-04-25T04:00:07;11.53;85.17
70676;DHT22;59069;52.242;20.900;2023-04-25T04:02:33;11.55;85.24
70676;DHT22;59069;52.242;20.900;2023-04-25T04:05:00;11.59;85.30
70676;DHT22;59069;52.242;20.900;2023-04-25T04:07:26;11.58;85.34
70676;DHT22;59069;52.242;20.900;2023-04-25T04:09:51;11.59;85.30
70676;DHT22;59069;52.242;20.900;2023-04-25T04:12:16;11.60;85.29
70676;DHT22;59069;52.242;20.900;2023-04-25T04:14:42;11.62;85.30
70676;DHT22;59069;52.242;20.900;2023-04-25T04:17:07;11.59;85.28
70676;DHT22;59069;52.242;20.900;2023-04-25T04:19:33;11.62;85.26
70676;DHT22;59069;52.242;20.900;2023-04-25T04:21:58;11.62;85.25
70676;DHT22;59069;52.242;20.900;2023-04-25T04:24:24;11.59;85.25
70676;DHT22;59069;52.242;20.900;2023-04-25T04:26:49;11.56;85.34
70676;DHT22;59069;52.242;20.900;2023-04-25T04:29:16;11.55;85.32
70676;DHT22;59069;52.242;20.900;2023-04-25T04:31:50;11.55;85.36
70676;DHT22;59069;52.242;20.900;2023-04-25T04:34:16;11.52;85.49
70676;DHT22;59069;52.242;20.900;2023-04-25T04:36:44;11.53;85.54
70676;DHT22;59069;52.242;20.900;2023-04-25T04:39:11;11.53;85.60
70676;DHT22;59069;52.242;20.900;2023-04-25T04:41:37;11.52;85.67
70676;DHT22;59069;52.242;20.900;2023-04-25T04:44:03;11.55;85.84
70676;DHT22;59069;52.242;20.900;2023-04-25T04:46:29;11.55;85.89
70676;DHT22;59069;52.242;20.900;2023-04-25T04:48:55;11.53;85.94
70676;DHT22;59069;52.242;20.900;2023-04-25T04:51:21;11.53;86.04
70676;DHT22;59069;52.242;20.900;2023-04-25T04:53:47;11.53;86.08
70676;DHT22;59069;52.242;20.900;2023-04-25T04:56:12;11.52;86.00
70676;DHT22;59069;52.242;20.900;2023-04-25T04:58:38;11.50;86.19
70676;DHT22;59069;52.242;20.900;2023-04-25T05:01:03;11.47;86.31
70676;DHT22;59069;52.242;20.900;2023-04-25T05:03:29;11.47;86.43
70676;DHT22;59069;52.242;20.900;2023-04-25T05:05:55;11.47;86.48
70676;DHT22;59069;52.242;20.900;2023-04-25T05:08:21;11.46;86.47
70676;DHT22;59069;52.242;20.900;2023-04-25T05:10:46;11.46;86.46
70676;DHT22;59069;52.242;20.900;2023-04-25T05:13:12;11.49;86.50
70676;DHT22;59069;52.242;20.900;2023-04-25T05:15:37;11.50;86.50
70676;DHT22;59069;52.242;20.900;2023-04-25T05:18:03;11.49;86.51
70676;DHT22;59069;52.242;20.900;2023-04-25T05:20:28;11.46;86.41
70676;DHT22;59069;52.242;20.900;2023-04-25T05:22:54;11.49;86.48
70676;DHT22;59069;52.242;20.900;2023-04-25T05:25:19;11.50;86.49
70676;DHT22;59069;52.242;20.900;2023-04-25T05:27:45;11.49;86.25
70676;DHT22;59069;52.242;20.900;2023-04-25T05:30:11;11.43;86.10
70676;DHT22;59069;52.242;20.900;2023-04-25T05:32:36;11.40;86.17
70676;DHT22;59069;52.242;20.900;2023-04-25T05:35:02;11.35;86.08
70676;DHT22;59069;52.242;20.900;2023-04-25T05:37:28;11.32;86.02
70676;DHT22;59069;52.242;20.900;2023-04-25T05:39:55;11.28;86.07
70676;DHT22;59069;52.242;20.900;2023-04-25T05:42:21;11.26;86.31
70676;DHT22;59069;52.242;20.900;2023-04-25T05:44:46;11.25;86.47
70676;DHT22;59069;52.242;20.900;2023-04-25T05:47:12;11.28;86.75
70676;DHT22;59069;52.242;20.900;2023-04-25T05:49:37;11.31;86.89
70676;DHT22;59069;52.242;20.900;2023-04-25T05:52:03;11.39;86.74
70676;DHT22;59069;52.242;20.900;2023-04-25T05:54:28;11.42;86.58
70676;DHT22;59069;52.242;20.900;2023-04-25T05:56:56;11.42;86.31
70676;DHT22;59069;52.242;20.900;2023-04-25T05:59:21;11.46;85.90
70676;DHT22;59069;52.242;20.900;2023-04-25T06:01:47;11.43;85.83
70676;DHT22;59069;52.242;20.900;2023-04-25T06:04:12;11.42;85.57
70676;DHT22;59069;52.242;20.900;2023-04-25T06:06:38;11.39;85.63
70676;DHT22;59069;52.242;20.900;2023-04-25T06:09:03;11.35;85.66
70676;DHT22;59069;52.242;20.900;2023-04-25T06:11:28;11.33;85.77
70676;DHT22;59069;52.242;20.900;2023-04-25T06:13:55;11.33;85.88
70676;DHT22;59069;52.242;20.900;2023-04-25T06:16:20;11.35;85.99
70676;DHT22;59069;52.242;20.900;2023-04-25T06:18:45;11.38;85.99
70676;DHT22;59069;52.242;20.900;2023-04-25T06:21:11;11.42;85.83
70676;DHT22;59069;52.242;20.900;2023-04-25T06:23:36;11.39;85.57
70676;DHT22;59069;52.242;20.900;2023-04-25T06:26:02;11.36;85.40
70676;DHT22;59069;52.242;20.900;2023-04-25T06:28:27;11.32;85.39
70676;DHT22;59069;52.242;20.900;2023-04-25T06:30:53;11.22;85.22
70676;DHT22;59069;52.242;20.900;2023-04-25T06:33:18;11.14;85.31
70676;DHT22;59069;52.242;20.900;2023-04-25T06:35:45;11.07;85.50
70676;DHT22;59069;52.242;20.900;2023-04-25T06:38:10;11.00;85.62
70676;DHT22;59069;52.242;20.900;2023-04-25T06:40:36;10.90;85.53
70676;DHT22;59069;52.242;20.900;2023-04-25T06:43:01;10.85;85.49
70676;DHT22;59069;52.242;20.900;2023-04-25T06:45:27;10.81;85.44
70676;DHT22;59069;52.242;20.900;2023-04-25T06:47:52;10.77;85.67
70676;DHT22;59069;52.242;20.900;2023-04-25T06:50:18;10.78;85.87
70676;DHT22;59069;52.242;20.900;2023-04-25T06:52:43;10.82;85.94
70676;DHT22;59069;52.242;20.900;2023-04-25T06:55:09;10.85;86.04
70676;DHT22;59069;52.242;20.900;2023-04-25T06:57:34;10.84;86.21
70676;DHT22;59069;52.242;20.900;2023-04-25T06:59:59;10.85;86.08
70676;DHT22;59069;52.242;20.900;2023-04-25T07:02:25;10.94;86.17
70676;DHT22;59069;52.242;20.900;2023-04-25T07:04:50;11.00;86.12
70676;DHT22;59069;52.242;20.900;2023-04-25T07:07:16;11.05;85.82
70676;DHT22;59069;52.242;20.900;2023-04-25T07:09:42;11.16;85.96
70676;DHT22;59069;52.242;20.900;2023-04-25T07:12:07;11.29;85.95
70676;DHT22;59069;52.242;20.900;2023-04-25T07:14:33;11.40;85.45
70676;DHT22;59069;52.242;20.900;2023-04-25T07:16:58;11.47;85.05
70676;DHT22;59069;52.242;20.900;2023-04-25T07:19:24;11.49;84.57
70676;DHT22;59069;52.242;20.900;2023-04-25T07:21:52;11.50;84.43
70676;DHT22;59069;52.242;20.900;2023-04-25T07:24:17;11.50;84.44
70676;DHT22;59069;52.242;20.900;2023-04-25T07:26:43;11.43;83.85
70676;DHT22;59069;52.242;20.900;2023-04-25T07:29:08;11.35;83.54
70676;DHT22;59069;52.242;20.900;2023-04-25T07:31:34;11.31;83.67
70676;DHT22;59069;52.242;20.900;2023-04-25T07:33:59;11.28;83.87
70676;DHT22;59069;52.242;20.900;2023-04-25T07:36:25;11.35;83.95
70676;DHT22;59069;52.242;20.900;2023-04-25T07:38:51;11.39;84.31
70676;DHT22;59069;52.242;20.900;2023-04-25T07:41:17;11.49;84.16
70676;DHT22;59069;52.242;20.900;2023-04-25T07:43:42;11.63;83.86
70676;DHT22;59069;52.242;20.900;2023-04-25T07:46:07;11.70;83.28
70676;DHT22;59069;52.242;20.900;2023-04-25T07:48:33;11.79;83.21
70676;DHT22;59069;52.242;20.900;2023-04-25T07:50:58;11.86;82.33
70676;DHT22;59069;52.242;20.900;2023-04-25T07:53:24;11.83;81.68
70676;DHT22;59069;52.242;20.900;2023-04-25T07:55:50;11.82;81.52
70676;DHT22;59069;52.242;20.900;2023-04-25T07:58:16;11.79;81.53
70676;DHT22;59069;52.242;20.900;2023-04-25T08:00:46;11.70;81.14
70676;DHT22;59069;52.242;20.900;2023-04-25T08:03:12;11.59;81.13
70676;DHT22;59069;52.242;20.900;2023-04-25T08:05:37;11.52;81.14
70676;DHT22;59069;52.242;20.900;2023-04-25T08:08:03;11.46;81.71
70676;DHT22;59069;52.242;20.900;2023-04-25T08:10:29;11.40;81.82
70676;DHT22;59069;52.242;20.900;2023-04-25T08:12:55;11.40;82.23
70676;DHT22;59069;52.242;20.900;2023-04-25T08:15:20;11.39;82.27
70676;DHT22;59069;52.242;20.900;2023-04-25T08:17:46;11.33;82.04
70676;DHT22;59069;52.242;20.900;2023-04-25T08:20:11;11.31;81.86
70676;DHT22;59069;52.242;20.900;2023-04-25T08:22:37;11.25;81.76
70676;DHT22;59069;52.242;20.900;2023-04-25T08:25:03;11.16;81.56
70676;DHT22;59069;52.242;20.900;2023-04-25T08:27:28;11.08;81.56
70676;DHT22;59069;52.242;20.900;2023-04-25T08:29:54;10.97;81.88
70676;DHT22;59069;52.242;20.900;2023-04-25T08:32:20;10.94;82.33
70676;DHT22;59069;52.242;20.900;2023-04-25T08:34:46;10.95;82.63
70676;DHT22;59069;52.242;20.900;2023-04-25T08:37:12;11.00;82.65
70676;DHT22;59069;52.242;20.900;2023-04-25T08:39:37;10.98;82.56
70676;DHT22;59069;52.242;20.900;2023-04-25T08:42:06;11.02;82.28
70676;DHT22;59069;52.242;20.900;2023-04-25T08:44:35;10.98;81.71
70676;DHT22;59069;52.242;20.900;2023-04-25T08:47:05;10.92;81.44
70676;DHT22;59069;52.242;20.900;2023-04-25T08:49:34;10.82;81.59
70676;DHT22;59069;52.242;20.900;2023-04-25T08:52:01;10.82;81.55
70676;DHT22;59069;52.242;20.900;2023-04-25T08:54:28;10.78;81.67
70676;DHT22;59069;52.242;20.900;2023-04-25T08:56:55;10.75;81.75
70676;DHT22;59069;52.242;20.900;2023-04-25T08:59:22;10.70;81.89
70676;DHT22;59069;52.242;20.900;2023-04-25T09:01:49;10.67;81.81
70676;DHT22;59069;52.242;20.900;2023-04-25T09:04:15;10.70;82.09
70676;DHT22;59069;52.242;20.900;2023-04-25T09:06:40;10.77;82.43
70676;DHT22;59069;52.242;20.900;2023-04-25T09:09:08;10.85;82.48
70676;DHT22;59069;52.242;20.900;2023-04-25T09:11:36;10.91;81.54
70676;DHT22;59069;52.242;20.900;2023-04-25T09:14:17;10.92;81.30
70676;DHT22;59069;52.242;20.900;2023-04-25T09:17:09;10.97;81.47
70676;DHT22;59069;52.242;20.900;2023-04-25T09:19:36;11.04;81.41
70676;DHT22;59069;52.242;20.900;2023-04-25T09:22:05;11.08;80.69
70676;DHT22;59069;52.242;20.900;2023-04-25T09:24:43;11.12;80.46
70676;DHT22;59069;52.242;20.900;2023-04-25T09:27:12;11.11;79.81
70676;DHT22;59069;52.242;20.900;2023-04-25T09:29:40;11.07;79.74
70676;DHT22;59069;52.242;20.900;2023-04-25T09:32:16;11.09;79.62
70676;DHT22;59069;52.242;20.900;2023-04-25T09:34:43;11.05;79.43
70676;DHT22;59069;52.242;20.900;2023-04-25T09:37:10;11.01;79.17
70676;DHT22;59069;52.242;20.900;2023-04-25T09:39:37;10.98;79.16
70676;DHT22;59069;52.242;20.900;2023-04-25T09:42:03;10.95;79.48
70676;DHT22;59069;52.242;20.900;2023-04-25T09:44:29;10.92;79.60
70676;DHT22;59069;52.242;20.900;2023-04-25T09:46:55;10.91;79.93
70676;DHT22;59069;52.242;20.900;2023-04-25T09:49:20;10.92;80.06
70676;DHT22;59069;52.242;20.900;2023-04-25T09:51:59;10.94;80.08
70676;DHT22;59069;52.242;20.900;2023-04-25T09:54:26;10.94;80.02
70676;DHT22;59069;52.242;20.900;2023-04-25T09:56:52;10.90;79.99
70676;DHT22;59069;52.242;20.900;2023-04-25T09:59:22;10.88;80.23
70676;DHT22;59069;52.242;20.900;2023-04-25T10:01:48;10.88;80.46
70676;DHT22;59069;52.242;20.900;2023-04-25T10:04:19;10.90;80.61
70676;DHT22;59069;52.242;20.900;2023-04-25T10:06:48;10.85;80.26
70676;DHT22;59069;52.242;20.900;2023-04-25T10:09:15;10.85;80.38
70676;DHT22;59069;52.242;20.900;2023-04-25T10:11:41;10.85;80.35
70676;DHT22;59069;52.242;20.900;2023-04-25T10:14:06;10.87;80.30
70676;DHT22;59069;52.242;20.900;2023-04-25T10:16:32;10.85;80.41
70676;DHT22;59069;52.242;20.900;2023-04-25T10:18:58;10.85;80.37
70676;DHT22;59069;52.242;20.900;2023-04-25T10:21:25;10.87;80.51
70676;DHT22;59069;52.242;20.900;2023-04-25T10:23:53;10.92;80.72
70676;DHT22;59069;52.242;20.900;2023-04-25T10:26:19;11.02;81.04
70676;DHT22;59069;52.242;20.900;2023-04-25T10:31:21;11.08;80.19
70676;DHT22;59069;52.242;20.900;2023-04-25T10:33:48;11.11;80.03
70676;DHT22;59069;52.242;20.900;2023-04-25T10:36:24;11.04;79.82
70676;DHT22;59069;52.242;20.900;2023-04-25T10:38:52;10.98;79.79
70676;DHT22;59069;52.242;20.900;2023-04-25T10:41:19;10.95;80.07
70676;DHT22;59069;52.242;20.900;2023-04-25T10:43:46;10.95;80.32
70676;DHT22;59069;52.242;20.900;2023-04-25T10:46:28;10.91;80.71
70676;DHT22;59069;52.242;20.900;2023-04-25T10:48:58;10.91;81.06
70676;DHT22;59069;52.242;20.900;2023-04-25T10:51:31;10.94;81.51
70676;DHT22;59069;52.242;20.900;2023-04-25T10:54:04;10.97;81.37
70676;DHT22;59069;52.242;20.900;2023-04-25T10:56:38;11.00;81.35
70676;DHT22;59069;52.242;20.900;2023-04-25T10:59:10;11.04;81.17
70676;DHT22;59069;52.242;20.900;2023-04-25T11:01:43;11.02;80.40
70676;DHT22;59069;52.242;20.900;2023-04-25T11:07:04;11.01;80.34
70676;DHT22;59069;52.242;20.900;2023-04-25T11:09:38;11.05;80.37
70676;DHT22;59069;52.242;20.900;2023-04-25T11:12:04;11.09;79.65
70676;DHT22;59069;52.242;20.900;2023-04-25T11:14:30;11.11;79.44
70676;DHT22;59069;52.242;20.900;2023-04-25T11:16:59;11.15;78.99
70676;DHT22;59069;52.242;20.900;2023-04-25T11:19:26;11.18;78.70
70676;DHT22;59069;52.242;20.900;2023-04-25T11:21:56;11.26;78.67
70676;DHT22;59069;52.242;20.900;2023-04-25T11:24:29;11.35;78.83
70676;DHT22;59069;52.242;20.900;2023-04-25T11:26:55;11.46;78.79
70676;DHT22;59069;52.242;20.900;2023-04-25T11:29:26;11.55;78.01
70676;DHT22;59069;52.242;20.900;2023-04-25T11:31:53;11.58;77.25
70676;DHT22;59069;52.242;20.900;2023-04-25T11:34:19;11.58;76.80
70676;DHT22;59069;52.242;20.900;2023-04-25T11:36:45;11.56;76.80
70676;DHT22;59069;52.242;20.900;2023-04-25T11:39:11;11.62;76.89
70676;DHT22;59069;52.242;20.900;2023-04-25T11:41:38;11.66;76.76
70676;DHT22;59069;52.242;20.900;2023-04-25T11:44:03;11.62;76.43
70676;DHT22;59069;52.242;20.900;2023-04-25T11:46:30;11.59;76.26
70676;DHT22;59069;52.242;20.900;2023-04-25T11:48:57;11.55;75.95
70676;DHT22;59069;52.242;20.900;2023-04-25T11:51:22;11.47;75.90
70676;DHT22;59069;52.242;20.900;2023-04-25T11:53:48;11.46;75.80
70676;DHT22;59069;52.242;20.900;2023-04-25T11:56:13;11.42;75.91
70676;DHT22;59069;52.242;20.900;2023-04-25T11:59:14;11.40;76.14
70676;DHT22;59069;52.242;20.900;2023-04-25T12:01:49;11.42;76.26
70676;DHT22;59069;52.242;20.900;2023-04-25T12:04:20;11.44;76.16
70676;DHT22;59069;52.242;20.900;2023-04-25T12:06:47;11.49;75.77
70676;DHT22;59069;52.242;20.900;2023-04-25T12:09:14;11.49;75.63
70676;DHT22;59069;52.242;20.900;2023-04-25T12:12:01;11.55;75.19
70676;DHT22;59069;52.242;20.900;2023-04-25T12:14:34;11.56;75.19
70676;DHT22;59069;52.242;20.900;2023-04-25T12:17:02;11.63;75.05
70676;DHT22;59069;52.242;20.900;2023-04-25T12:19:33;11.66;74.24
70676;DHT22;59069;52.242;20.900;2023-04-25T12:22:01;11.60;73.64
70676;DHT22;59069;52.242;20.900;2023-04-25T12:24:28;11.59;73.48
70676;DHT22;59069;52.242;20.900;2023-04-25T12:27:02;11.53;73.35
70676;DHT22;59069;52.242;20.900;2023-04-25T12:29:30;11.56;73.32
70676;DHT22;59069;52.242;20.900;2023-04-25T12:31:56;11.53;72.77
70676;DHT22;59069;52.242;20.900;2023-04-25T12:34:23;11.50;72.54
70676;DHT22;59069;52.242;20.900;2023-04-25T12:36:49;11.49;72.31
70676;DHT22;59069;52.242;20.900;2023-04-25T12:39:16;11.46;72.19
70676;DHT22;59069;52.242;20.900;2023-04-25T12:41:42;11.43;71.93
70676;DHT22;59069;52.242;20.900;2023-04-25T12:44:07;11.39;71.99
70676;DHT22;59069;52.242;20.900;2023-04-25T12:46:33;11.39;72.20
70676;DHT22;59069;52.242;20.900;2023-04-25T12:48:58;11.40;72.47
70676;DHT22;59069;52.242;20.900;2023-04-25T12:51:25;11.43;72.74
70676;DHT22;59069;52.242;20.900;2023-04-25T12:53:53;11.43;72.76
70676;DHT22;59069;52.242;20.900;2023-04-25T12:56:18;11.42;72.36
70676;DHT22;59069;52.242;20.900;2023-04-25T12:58:44;11.40;72.14
70676;DHT22;59069;52.242;20.900;2023-04-25T13:01:10;11.38;72.41
70676;DHT22;59069;52.242;20.900;2023-04-25T13:03:37;11.35;72.47
70676;DHT22;59069;52.242;20.900;2023-04-25T13:06:03;11.33;72.64
70676;DHT22;59069;52.242;20.900;2023-04-25T13:08:29;11.35;72.93
70676;DHT22;59069;52.242;20.900;2023-04-25T13:10:55;11.35;73.17
70676;DHT22;59069;52.242;20.900;2023-04-25T13:13:20;11.40;73.48
70676;DHT22;59069;52.242;20.900;2023-04-25T13:15:46;11.46;73.58
70676;DHT22;59069;52.242;20.900;2023-04-25T13:18:11;11.52;73.77
70676;DHT22;59069;52.242;20.900;2023-04-25T13:20:36;11.59;73.70
70676;DHT22;59069;52.242;20.900;2023-04-25T13:23:02;11.65;73.74
70676;DHT22;59069;52.242;20.900;2023-04-25T13:25:27;11.65;73.55
70676;DHT22;59069;52.242;20.900;2023-04-25T13:27:53;11.63;73.18
70676;DHT22;59069;52.242;20.900;2023-04-25T13:30:18;11.58;72.93
70676;DHT22;59069;52.242;20.900;2023-04-25T13:32:44;11.53;73.19
70676;DHT22;59069;52.242;20.900;2023-04-25T13:35:11;11.52;73.66
70676;DHT22;59069;52.242;20.900;2023-04-25T13:37:38;11.53;73.70
70676;DHT22;59069;52.242;20.900;2023-04-25T13:40:08;11.55;73.90
70676;DHT22;59069;52.242;20.900;2023-04-25T13:42:35;11.55;74.04
70676;DHT22;59069;52.242;20.900;2023-04-25T13:45:02;11.58;74.30
70676;DHT22;59069;52.242;20.900;2023-04-25T13:47:29;11.59;74.54
70676;DHT22;59069;52.242;20.900;2023-04-25T13:49:55;11.67;74.76
70676;DHT22;59069;52.242;20.900;2023-04-25T13:52:21;11.72;74.84
70676;DHT22;59069;52.242;20.900;2023-04-25T13:54:47;11.76;74.82
70676;DHT22;59069;52.242;20.900;2023-04-25T13:57:13;11.76;74.62
70676;DHT22;59069;52.242;20.900;2023-04-25T13:59:39;11.70;74.61
70676;DHT22;59069;52.242;20.900;2023-04-25T14:02:06;11.73;74.69
70676;DHT22;59069;52.242;20.900;2023-04-25T14:04:32;11.67;74.73
70676;DHT22;59069;52.242;20.900;2023-04-25T14:06:58;11.62;74.85
70676;DHT22;59069;52.242;20.900;2023-04-25T14:09:23;11.58;75.07
70676;DHT22;59069;52.242;20.900;2023-04-25T14:11:54;11.55;75.41
70676;DHT22;59069;52.242;20.900;2023-04-25T14:14:20;11.58;75.55
70676;DHT22;59069;52.242;20.900;2023-04-25T14:16:47;11.58;75.72
70676;DHT22;59069;52.242;20.900;2023-04-25T14:19:17;11.58;75.74
70676;DHT22;59069;52.242;20.900;2023-04-25T14:21:42;11.52;75.59
70676;DHT22;59069;52.242;20.900;2023-04-25T14:24:08;11.44;75.61
70676;DHT22;59069;52.242;20.900;2023-04-25T14:26:34;11.44;75.78
70676;DHT22;59069;52.242;20.900;2023-04-25T14:29:06;11.40;75.93
70676;DHT22;59069;52.242;20.900;2023-04-25T14:31:34;11.39;76.13
70676;DHT22;59069;52.242;20.900;2023-04-25T14:34:00;11.39;76.44
70676;DHT22;59069;52.242;20.900;2023-04-25T14:36:27;11.36;76.70
70676;DHT22;59069;52.242;20.900;2023-04-25T14:38:53;11.35;76.98
70676;DHT22;59069;52.242;20.900;2023-04-25T14:41:18;11.32;77.29
70676;DHT22;59069;52.242;20.900;2023-04-25T14:43:44;11.31;77.33
70676;DHT22;59069;52.242;20.900;2023-04-25T14:46:10;11.25;77.64
70676;DHT22;59069;52.242;20.900;2023-04-25T14:48:36;11.25;77.73
70676;DHT22;59069;52.242;20.900;2023-04-25T14:51:01;11.21;77.96
70676;DHT22;59069;52.242;20.900;2023-04-25T14:53:27;11.19;78.22
70676;DHT22;59069;52.242;20.900;2023-04-25T14:55:53;11.21;78.73
70676;DHT22;59069;52.242;20.900;2023-04-25T14:58:18;11.29;79.20
70676;DHT22;59069;52.242;20.900;2023-04-25T15:00:45;11.38;79.44
70676;DHT22;59069;52.242;20.900;2023-04-25T15:03:11;11.40;79.09
70676;DHT22;59069;52.242;20.900;2023-04-25T15:05:41;11.43;78.62
70676;DHT22;59069;52.242;20.900;2023-04-25T15:08:07;11.38;78.41
70676;DHT22;59069;52.242;20.900;2023-04-25T15:10:33;11.36;78.39
70676;DHT22;59069;52.242;20.900;2023-04-25T15:12:58;11.33;78.58
70676;DHT22;59069;52.242;20.900;2023-04-25T15:15:24;11.31;78.39
70676;DHT22;59069;52.242;20.900;2023-04-25T15:17:50;11.26;78.22